aviador You're here:

PADL Decoded Metar

DILLINGHAM in AK, USA
Report Time2018-07-20 08:56:00
UTC Time2018-07-20 09:03:22
Flight Rules vfr VFR
WindCalm
Visibility9999 m
Phenomena:N/A
Clouds:N/A
Expected CloudBase > 800 ft AGL from Temp-Dew spread
CeilingNone
Temp11°C (ISA -4)
Dew Point09°C (88% RH)
AAT10.8°C
QNH1024 hPa
Density Alt-591 ft
Elevation85 ft
Report Wrong Elevation
Raw Report
PADL 200856Z AUTO 00000KT 10SM CLR 11/09 A3025 RMK AO2 SLP251
T01060089 401780072 53006=

Extra information for PADL:More info

Metar Taf Metar & Taf Last 4 Metars F.Rules Stats Wind Profile Meteogram Temp Stats Airport Information Weather charts Add Link Nearby VenuesMetar ALERT Operation Metar Decoded Social comments

AIRNAV info for PADL